Time;durP1;ratioP1;P1;durP2;ratioP2;P2;SDS_P1;SDS_P2;PMS_P1;PMS_P2;Temp;Humidity;BMP_temperature;BMP_pressure;BME280_temperature;BME280_humidity;BME280_pressure;Samples;Min_cycle;Max_cycle;Signal;HPM_P1;HPM_P2
2022/04/11 00:00:45;;;;;;;9.13;5.20;;;;;;;5.33;69.02;101561.53;5018639;28;20521;-69
2022/04/11 00:03:11;;;;;;;7.17;4.30;;;;;;;5.42;69.06;101561.06;5018345;28;20537;-71
2022/04/11 00:05:36;;;;;;;6.70;4.50;;;;;;;5.01;69.59;101561.88;5018892;28;20213;-70
2022/04/11 00:08:01;;;;;;;10.47;4.83;;;;;;;5.20;69.52;101555.81;5018279;28;20466;-68
2022/04/11 00:10:27;;;;;;;8.87;5.10;;;;;;;5.25;69.16;101550.88;5018411;28;20182;-69
2022/04/11 00:13:02;;;;;;;7.77;4.90;;;;;;;8.84;77.19;101545.97;5018616;28;20209;-65
2022/04/11 00:15:28;;;;;;;7.30;4.80;;;;;;;11.45;71.88;101529.69;5018368;28;20490;-70
2022/04/11 00:17:53;;;;;;;5.33;4.30;;;;;;;7.65;61.59;101539.56;5018299;28;20418;-71
2022/04/11 00:20:19;;;;;;;9.03;5.10;;;;;;;6.79;64.08;101545.97;5018358;28;20249;-72
2022/04/11 00:22:44;;;;;;;5.80;4.40;;;;;;;6.15;65.67;101552.09;5018495;28;20197;-71
2022/04/11 00:25:09;;;;;;;6.03;4.33;;;;;;;5.52;66.92;101558.03;5018886;28;20178;-72
2022/04/11 00:27:34;;;;;;;10.73;5.73;;;;;;;5.59;67.05;101560.09;5018294;28;20489;-72
2022/04/11 00:30:00;;;;;;;6.43;4.40;;;;;;;5.40;67.32;101559.28;5018277;28;20606;-73
2022/04/11 00:32:25;;;;;;;7.17;4.87;;;;;;;5.50;67.47;101555.41;5018648;28;20171;-72
2022/04/11 00:34:50;;;;;;;7.17;4.50;;;;;;;5.66;67.59;101562.13;5018106;28;20213;-72
2022/04/11 00:37:16;;;;;;;7.53;4.53;;;;;;;5.30;67.91;101556.22;5018257;28;20171;-73
2022/04/11 00:39:41;;;;;;;9.67;4.70;;;;;;;5.39;67.96;101551.47;5018586;28;20193;-72
2022/04/11 00:42:12;;;;;;;10.03;4.30;;;;;;;5.50;67.93;101551.94;5018011;28;20185;-71
2022/04/11 00:44:37;;;;;;;11.13;6.23;;;;;;;5.06;69.00;101554.34;5018223;28;20591;-72
2022/04/11 00:47:03;;;;;;;7.10;5.10;;;;;;;5.26;68.05;101550.03;5018496;28;20418;-73
2022/04/11 00:49:28;;;;;;;11.83;5.20;;;;;;;5.16;69.48;101548.75;5018204;28;20178;-72
2022/04/11 00:51:54;;;;;;;7.33;4.77;;;;;;;5.17;69.18;101558.28;5018042;28;20172;-71
2022/04/11 00:54:20;;;;;;;5.40;4.90;;;;;;;5.01;68.90;101554.13;5018432;28;20405;-71
2022/04/11 00:56:46;;;;;;;8.90;4.90;;;;;;;5.17;69.48;101553.09;5017929;28;20205;-70
2022/04/11 00:59:13;;;;;;;9.67;4.70;;;;;;;5.34;68.92;101551.25;5017910;28;20461;-70
2022/04/11 01:01:39;;;;;;;5.93;4.70;;;;;;;5.19;68.09;101553.19;5018532;28;20438;-71
2022/04/11 01:04:04;;;;;;;5.33;3.80;;;;;;;5.23;67.99;101547.31;5018971;28;20477;-71
2022/04/11 01:06:30;;;;;;;7.87;4.50;;;;;;;5.30;68.32;101549.34;5021701;28;20421;-71
2022/04/11 01:08:56;;;;;;;7.50;4.67;;;;;;;5.13;68.67;101552.88;5022394;28;20163;-70
2022/04/11 01:11:22;;;;;;;9.03;4.33;;;;;;;5.10;68.52;101553.66;5020815;28;20171;-71
2022/04/11 01:13:47;;;;;;;11.80;5.73;;;;;;;5.09;68.24;101561.31;5021702;28;20444;-72
2022/04/11 01:16:12;;;;;;;6.60;4.07;;;;;;;5.11;68.78;101560.56;5021301;28;20175;-71
2022/04/11 01:18:39;;;;;;;9.30;3.90;;;;;;;5.08;68.28;101557.84;5021395;28;20483;-71
2022/04/11 01:21:06;;;;;;;5.57;4.20;;;;;;;5.10;68.58;101561.41;5021454;28;20293;-71
2022/04/11 01:23:32;;;;;;;5.27;4.20;;;;;;;5.00;68.99;101557.50;5022227;28;20493;-71
2022/04/11 01:25:57;;;;;;;6.50;4.07;;;;;;;4.92;69.69;101558.84;5021231;28;20509;-71
2022/04/11 01:28:23;;;;;;;10.87;4.40;;;;;;;4.95;68.48;101564.19;5021196;28;20185;-72
2022/04/11 01:30:53;;;;;;;5.60;4.00;;;;;;;4.86;69.35;101567.22;5021681;28;20198;-72
2022/04/11 01:33:21;;;;;;;5.70;3.83;;;;;;;5.00;68.51;101562.66;5021391;28;20415;-72
2022/04/11 01:35:46;;;;;;;9.20;4.40;;;;;;;5.08;68.29;101564.75;5021284;28;20471;-72
2022/04/11 01:38:12;;;;;;;5.47;4.30;;;;;;;4.88;67.82;101567.28;5021588;28;20402;-72
2022/04/11 01:40:37;;;;;;;4.40;4.00;;;;;;;4.78;68.19;101567.69;5020848;28;20202;-71
2022/04/11 01:43:03;;;;;;;4.23;3.83;;;;;;;4.55;69.09;101572.66;5021008;28;20190;-72
2022/04/11 01:45:28;;;;;;;24.53;4.37;;;;;;;4.57;68.59;101573.59;5021424;28;20179;-72
2022/04/11 01:47:53;;;;;;;15.27;4.73;;;;;;;4.77;68.29;101566.78;5021024;28;20163;-72
2022/04/11 01:50:19;;;;;;;6.40;3.97;;;;;;;4.86;67.81;101569.81;5021088;28;20441;-72
2022/04/11 01:52:44;;;;;;;4.77;4.20;;;;;;;4.63;69.04;101568.72;5021405;28;20179;-72
2022/04/11 01:55:09;;;;;;;9.20;4.40;;;;;;;4.58;68.78;101567.63;5020838;28;20202;-72
2022/04/11 01:57:34;;;;;;;5.20;3.70;;;;;;;4.40;68.86;101565.06;5020834;28;20250;-71
2022/04/11 02:00:00;;;;;;;4.53;3.63;;;;;;;4.68;69.27;101569.84;5021071;28;20644;-72
2022/04/11 02:02:25;;;;;;;5.93;4.50;;;;;;;4.78;68.66;101563.41;5020388;28;20167;-72
2022/04/11 02:04:51;;;;;;;7.03;4.07;;;;;;;4.79;68.04;101572.00;5020790;28;20438;-71
2022/04/11 02:07:19;;;;;;;8.33;3.87;;;;;;;4.83;68.26;101568.75;5020922;28;20543;-73
2022/04/11 02:09:44;;;;;;;4.50;3.67;;;;;;;4.51;68.31;101565.56;5020698;28;20175;-71
2022/04/11 02:12:09;;;;;;;7.00;4.20;;;;;;;4.71;68.06;101569.09;5020461;28;20416;-72
2022/04/11 02:14:35;;;;;;;11.90;4.10;;;;;;;4.70;68.27;101575.94;5021278;28;20540;-72
2022/04/11 02:17:00;;;;;;;5.77;4.23;;;;;;;4.78;67.81;101572.84;5019738;28;20487;-72
2022/04/11 02:19:25;;;;;;;10.90;4.13;;;;;;;4.71;67.88;101585.47;5020310;28;20293;-71
2022/04/11 02:21:51;;;;;;;6.57;4.10;;;;;;;4.95;67.42;101565.88;5019855;28;20274;-72
2022/04/11 02:24:16;;;;;;;6.83;4.10;;;;;;;5.04;67.21;101582.66;5020234;28;20171;-72
2022/04/11 02:26:41;;;;;;;6.80;4.20;;;;;;;4.80;66.84;101578.97;5020448;28;20198;-74
2022/04/11 02:29:07;;;;;;;10.83;4.17;;;;;;;4.68;67.38;101580.16;5020694;28;20425;-72
2022/04/11 02:31:32;;;;;;;5.10;3.73;;;;;;;4.54;67.64;101576.03;5020045;28;20175;-71
2022/04/11 02:33:58;;;;;;;7.33;3.80;;;;;;;4.61;67.64;101584.97;5020125;28;20174;-72
2022/04/11 02:36:23;;;;;;;5.60;4.00;;;;;;;4.42;68.52;101580.63;5020667;28;20175;-72
2022/04/11 02:38:48;;;;;;;7.67;4.03;;;;;;;4.49;68.07;101577.50;5020001;28;20441;-72
2022/04/11 02:41:14;;;;;;;7.80;4.07;;;;;;;4.64;68.09;101575.66;5019801;28;20256;-73
2022/04/11 02:43:39;;;;;;;12.60;4.20;;;;;;;4.63;67.58;101581.63;5020617;28;20194;-72
2022/04/11 02:46:04;;;;;;;7.33;4.10;;;;;;;4.77;66.51;101574.53;5019988;28;20545;-72
2022/04/11 02:48:30;;;;;;;6.63;3.80;;;;;;;4.47;67.78;101573.97;5019979;28;20174;-72
2022/04/11 02:50:55;;;;;;;6.10;3.73;;;;;;;4.63;68.07;101578.19;5020754;28;20163;-72
2022/04/11 02:53:20;;;;;;;6.70;4.30;;;;;;;4.50;68.19;101574.13;5019774;28;20174;-71
2022/04/11 02:55:45;;;;;;;4.57;3.40;;;;;;;4.36;67.86;101571.75;5019911;28;20171;-73
2022/04/11 02:58:11;;;;;;;6.27;4.10;;;;;;;4.55;67.67;101573.53;5020080;28;20178;-72
2022/04/11 03:00:36;;;;;;;6.63;4.47;;;;;;;4.64;67.65;101567.03;5019481;28;20246;-71
2022/04/11 03:03:01;;;;;;;7.20;4.73;;;;;;;4.64;67.75;101567.94;5018428;28;20231;-72
2022/04/11 03:05:27;;;;;;;7.90;4.57;;;;;;;4.40;67.53;101570.22;5019976;28;20163;-71
2022/04/11 03:07:52;;;;;;;9.00;4.80;;;;;;;4.23;69.07;101571.97;5019680;28;20462;-72
2022/04/11 03:10:19;;;;;;;6.83;4.67;;;;;;;4.69;67.74;101571.59;5019427;28;20313;-73
2022/04/11 03:12:44;;;;;;;7.03;4.23;;;;;;;4.68;67.69;101567.25;5019874;28;20171;-73
2022/04/11 03:15:10;;;;;;;7.17;4.60;;;;;;;4.46;67.82;101570.50;5019416;28;20425;-73
2022/04/11 03:17:35;;;;;;;7.37;5.07;;;;;;;4.51;69.41;101570.72;5019239;28;20166;-74
2022/04/11 03:20:00;;;;;;;7.07;5.30;;;;;;;4.70;67.70;101568.19;5019924;28;20266;-72
2022/04/11 03:22:25;;;;;;;8.20;5.07;;;;;;;4.56;67.33;101571.84;5018999;28;20533;-71
2022/04/11 03:24:51;;;;;;;7.73;5.10;;;;;;;4.51;68.49;101574.19;5019344;28;20174;-71
2022/04/11 03:27:16;;;;;;;6.93;5.37;;;;;;;4.27;67.97;101567.84;5019517;28;20193;-71
2022/04/11 03:29:41;;;;;;;8.33;5.03;;;;;;;4.22;68.34;101570.19;5019462;28;20529;-72
2022/04/11 03:32:07;;;;;;;6.90;4.90;;;;;;;4.65;67.95;101567.09;5019123;28;20551;-72
2022/04/11 03:34:32;;;;;;;6.53;4.97;;;;;;;4.65;68.26;101573.97;5019674;28;20429;-72
2022/04/11 03:36:58;;;;;;;6.50;5.63;;;;;;;4.56;67.98;101571.84;5019245;28;20190;-73
2022/04/11 03:39:23;;;;;;;6.10;5.40;;;;;;;4.61;67.71;101574.63;5018832;28;20286;-72
2022/04/11 03:41:49;;;;;;;12.73;6.03;;;;;;;4.58;67.61;101570.19;5019201;28;20190;-71
2022/04/11 03:44:14;;;;;;;9.33;5.70;;;;;;;4.50;67.64;101566.38;5019081;28;20552;-71
2022/04/11 03:46:39;;;;;;;5.20;4.70;;;;;;;4.50;68.47;101571.53;5018974;28;20176;-72
2022/04/11 03:49:06;;;;;;;8.17;5.43;;;;;;;4.58;68.39;101572.78;5019324;28;20162;-74
2022/04/11 03:51:32;;;;;;;8.90;6.17;;;;;;;4.42;68.27;101570.28;5018678;28;20420;-73
2022/04/11 03:53:57;;;;;;;8.80;5.57;;;;;;;4.49;68.51;101572.34;5018710;28;20744;-73
2022/04/11 03:56:22;;;;;;;8.27;6.00;;;;;;;4.39;67.33;101576.19;5019016;28;20508;-72
2022/04/11 03:58:48;;;;;;;6.50;5.63;;;;;;;4.15;68.58;101576.75;5018710;28;20214;-71
2022/04/11 04:01:13;;;;;;;7.47;5.50;;;;;;;4.48;68.37;101581.78;5018497;28;20170;-71
2022/04/11 04:03:40;;;;;;;6.50;5.57;;;;;;;4.79;67.53;101588.41;5017916;28;20226;-71
2022/04/11 04:06:05;;;;;;;9.33;5.90;;;;;;;4.60;67.77;101580.59;5019032;28;20541;-72
2022/04/11 04:08:30;;;;;;;7.63;5.70;;;;;;;4.53;68.04;101587.16;5018690;28;20501;-72
2022/04/11 04:10:56;;;;;;;10.83;6.17;;;;;;;4.46;68.27;101590.28;5018527;28;20167;-71
2022/04/11 04:13:21;;;;;;;10.27;5.80;;;;;;;4.49;68.11;101587.84;5018505;28;20406;-72
2022/04/11 04:15:46;;;;;;;11.70;6.07;;;;;;;4.08;68.54;101594.44;5019020;28;20245;-71
2022/04/11 04:18:12;;;;;;;8.90;5.87;;;;;;;4.30;68.63;101592.13;5018415;28;20197;-74
2022/04/11 04:20:38;;;;;;;9.93;6.43;;;;;;;4.29;69.20;101592.03;5018296;28;20468;-71
2022/04/11 04:23:04;;;;;;;9.53;6.70;;;;;;;4.33;68.43;101592.28;5018891;28;20186;-71
2022/04/11 04:25:29;;;;;;;12.43;6.73;;;;;;;4.18;68.33;101591.50;5018254;28;20414;-72
2022/04/11 04:27:54;;;;;;;7.67;6.60;;;;;;;3.92;69.37;101585.94;5018448;28;20631;-73
2022/04/11 04:30:20;;;;;;;9.87;7.03;;;;;;;4.10;70.29;101588.56;5018508;28;20163;-72
2022/04/11 04:32:46;;;;;;;9.90;6.63;;;;;;;4.14;68.37;101587.00;5036318;28;20257;-73
2022/04/11 04:35:12;;;;;;;8.83;6.00;;;;;;;4.26;68.72;101594.47;5036670;28;20586;-71
2022/04/11 04:37:38;;;;;;;8.00;6.50;;;;;;;4.46;67.43;101592.84;5037487;28;20417;-72
2022/04/11 04:40:04;;;;;;;8.17;6.77;;;;;;;4.37;67.57;101589.03;5041099;28;20460;-73
2022/04/11 04:42:29;;;;;;;8.60;7.00;;;;;;;4.05;69.28;101590.91;5041754;28;20420;-72
2022/04/11 04:44:55;;;;;;;9.00;6.53;;;;;;;4.33;68.61;101592.28;5041824;28;20425;-72
2022/04/11 04:47:20;;;;;;;11.40;7.23;;;;;;;4.26;68.37;101592.75;5042599;28;20189;-72
2022/04/11 04:49:46;;;;;;;7.83;6.90;;;;;;;4.15;68.14;101586.19;5042321;28;20201;-71
2022/04/11 04:52:12;;;;;;;7.37;6.60;;;;;;;4.60;67.37;101591.84;5042048;28;20524;-72
2022/04/11 04:54:37;;;;;;;7.67;6.33;;;;;;;4.35;68.46;101590.63;5041842;28;20421;-72
2022/04/11 04:57:03;;;;;;;10.83;7.50;;;;;;;4.71;67.48;101588.06;5041683;28;20194;-72
2022/04/11 04:59:29;;;;;;;12.67;7.23;;;;;;;4.58;67.63;101583.13;5042119;28;20225;-72
2022/04/11 05:01:54;;;;;;;13.23;7.57;;;;;;;4.66;67.19;101580.91;5041670;28;20437;-72
2022/04/11 05:04:20;;;;;;;10.30;7.17;;;;;;;4.80;66.73;101586.72;5041623;28;20539;-71
2022/04/11 05:06:45;;;;;;;11.00;7.10;;;;;;;4.18;68.50;101586.34;5042084;28;20229;-72
2022/04/11 05:09:10;;;;;;;9.90;7.37;;;;;;;4.60;67.64;101580.59;5041534;28;20174;-73
2022/04/11 05:11:36;;;;;;;8.20;6.30;;;;;;;4.39;68.45;101578.78;5041475;28;20184;-72
2022/04/11 05:14:01;;;;;;;13.33;7.70;;;;;;;4.66;66.93;101580.91;5042138;28;20166;-72
2022/04/11 05:16:26;;;;;;;7.87;6.60;;;;;;;4.65;67.18;101589.47;5040597;28;20170;-72
2022/04/11 05:18:51;;;;;;;10.60;6.33;;;;;;;4.80;67.00;101589.28;5041394;28;20282;-71
2022/04/11 05:21:17;;;;;;;9.67;6.63;;;;;;;4.74;67.46;101586.44;5041723;28;20166;-72
2022/04/11 05:23:42;;;;;;;5.47;4.97;;;;;;;4.88;66.80;101587.94;5041237;28;20201;-71
2022/04/11 05:26:07;;;;;;;8.90;6.93;;;;;;;4.74;65.23;101591.59;5041015;28;20166;-70
2022/04/11 05:28:33;;;;;;;7.70;6.50;;;;;;;5.13;65.37;101591.66;5041851;28;20180;-70
2022/04/11 05:30:58;;;;;;;9.17;6.80;;;;;;;4.88;66.06;101590.53;5041045;28;20174;-72
2022/04/11 05:33:24;;;;;;;14.40;6.40;;;;;;;4.83;65.44;101595.50;5041273;28;20174;-71
2022/04/11 05:35:49;;;;;;;8.67;6.57;;;;;;;4.85;65.78;101593.84;5041824;28;20162;-72
2022/04/11 05:38:16;;;;;;;8.60;6.30;;;;;;;5.42;64.45;101584.34;5041013;28;20172;-71
2022/04/11 05:40:45;;;;;;;7.43;6.23;;;;;;;5.66;63.02;101593.16;5039954;28;20510;-72
2022/04/11 05:43:13;;;;;;;6.63;5.93;;;;;;;6.97;60.87;101587.28;5040619;28;20811;-72
2022/04/11 05:45:38;;;;;;;6.77;5.80;;;;;;;9.08;53.49;101580.50;5040066;28;20466;-72
2022/04/11 05:48:03;;;;;;;10.40;5.50;;;;;;;10.62;48.85;101569.72;5040598;28;20788;-73
2022/04/11 05:50:29;;;;;;;7.87;6.00;;;;;;;10.38;48.10;101573.53;5039542;28;20163;-73
2022/04/11 05:52:54;;;;;;;7.83;6.90;;;;;;;11.01;46.06;101574.06;5040450;28;20221;-72
2022/04/11 05:55:19;;;;;;;8.63;6.10;;;;;;;11.58;45.61;101571.72;5040638;28;20555;-72
2022/04/11 05:57:45;;;;;;;10.27;5.83;;;;;;;12.83;42.76;101567.66;5040642;28;20177;-72
2022/04/11 06:00:11;;;;;;;7.67;5.10;;;;;;;12.10;43.50;101577.91;5040458;28;20202;-72
2022/04/11 06:02:36;;;;;;;7.00;5.13;;;;;;;12.51;42.27;101570.69;5040391;28;20525;-72
2022/04/11 06:05:01;;;;;;;6.20;4.57;;;;;;;13.93;39.92;101569.81;5041014;28;20449;-72
2022/04/11 06:07:30;;;;;;;9.03;5.03;;;;;;;13.66;40.02;101566.06;5040267;28;20174;-73
2022/04/11 06:09:56;;;;;;;7.43;4.93;;;;;;;13.66;40.10;101566.06;5021159;28;20531;-72
2022/04/11 06:12:24;;;;;;;5.60;5.00;;;;;;;13.10;40.24;101569.78;5020765;28;20583;-73
2022/04/11 06:14:49;;;;;;;6.33;4.73;;;;;;;13.05;40.75;101577.56;5019575;28;20591;-74
2022/04/11 06:17:15;;;;;;;5.40;4.90;;;;;;;11.88;42.99;101575.72;5018951;28;20442;-72
2022/04/11 06:19:40;;;;;;;5.80;4.80;;;;;;;11.44;43.58;101584.50;5025075;28;20255;-73
2022/04/11 06:22:09;;;;;;;7.57;6.60;;;;;;;11.57;43.48;101581.28;5029600;28;20236;-73
2022/04/11 06:24:34;;;;;;;7.50;5.00;;;;;;;11.56;44.68;101583.88;5032031;28;20202;-71
2022/04/11 06:27:01;;;;;;;7.67;5.20;;;;;;;11.82;44.65;101584.34;5025218;28;20815;-72
2022/04/11 06:29:26;;;;;;;5.43;4.80;;;;;;;11.98;43.43;101582.94;5015887;28;20477;-73
2022/04/11 06:31:51;;;;;;;8.53;5.00;;;;;;;12.08;42.86;101587.47;5018603;28;20433;-72
2022/04/11 06:34:17;;;;;;;6.30;5.10;;;;;;;11.92;43.24;101582.78;5018079;28;20548;-72
2022/04/11 06:36:42;;;;;;;7.90;4.90;;;;;;;12.39;42.92;101594.91;5010725;28;20262;-72
2022/04/11 06:39:07;;;;;;;7.50;5.10;;;;;;;11.95;42.44;101586.34;5017837;28;20234;-72
2022/04/11 06:41:32;;;;;;;6.00;4.67;;;;;;;11.67;43.90;101592.78;5018065;28;20163;-72
2022/04/11 06:43:58;;;;;;;8.97;4.60;;;;;;;13.13;41.33;101594.22;5018787;28;20221;-73
2022/04/11 06:46:23;;;;;;;7.10;4.80;;;;;;;13.58;39.82;101599.16;5019273;28;20443;-73
2022/04/11 06:48:49;;;;;;;5.73;5.13;;;;;;;13.14;40.66;101601.22;5019743;28;20301;-73
2022/04/11 06:51:14;;;;;;;10.00;5.10;;;;;;;13.68;39.75;101597.50;5019025;28;20612;-73
2022/04/11 06:53:39;;;;;;;6.93;5.67;;;;;;;14.41;39.32;101601.66;5019614;28;20197;-72
2022/04/11 06:56:06;;;;;;;9.00;4.93;;;;;;;13.54;40.20;101602.63;5020021;28;20175;-73
2022/04/11 06:58:31;;;;;;;15.10;6.23;;;;;;;14.61;37.93;101592.22;5019788;28;20210;-72
2022/04/11 07:00:56;;;;;;;9.80;5.23;;;;;;;13.87;39.35;101598.56;5019515;28;20755;-77
2022/04/11 07:03:22;;;;;;;10.37;5.10;;;;;;;13.86;39.36;101594.22;5019814;28;20626;-77
2022/04/11 07:05:47;;;;;;;5.97;4.90;;;;;;;12.78;41.51;101605.09;5019748;28;20221;-73
2022/04/11 07:08:12;;;;;;;8.70;5.27;;;;;;;13.68;40.89;101598.41;5018671;28;20242;-79
2022/04/11 07:10:40;;;;;;;5.17;4.67;;;;;;;14.01;39.30;101596.97;5019406;28;20486;-77
2022/04/11 07:13:05;;;;;;;7.90;5.20;;;;;;;14.49;38.99;101598.25;5019533;28;20213;-78
2022/04/11 07:15:32;;;;;;;5.90;5.30;;;;;;;14.63;39.01;101605.38;5020093;28;20414;-77
2022/04/11 07:17:57;;;;;;;10.00;5.50;;;;;;;13.22;40.98;101606.56;5019513;28;20202;-76
2022/04/11 07:20:23;;;;;;;7.20;4.90;;;;;;;14.66;38.82;101608.00;5019302;28;20540;-76
2022/04/11 07:22:48;;;;;;;6.00;5.10;;;;;;;14.63;39.02;101597.50;5020061;28;20175;-78
2022/04/11 07:25:13;;;;;;;9.13;5.27;;;;;;;13.45;40.71;101599.03;5028199;28;20173;-76
2022/04/11 07:27:39;;;;;;;6.57;4.90;;;;;;;14.29;40.47;101603.34;5033320;28;20402;-77
2022/04/11 07:30:04;;;;;;;7.50;5.70;;;;;;;15.21;38.84;101602.19;5019032;28;20174;-78
2022/04/11 07:32:30;;;;;;;7.27;5.07;;;;;;;17.46;34.23;101587.22;5030009;28;20189;-77
2022/04/11 07:34:59;;;;;;;8.40;5.00;;;;;;;16.20;36.48;101588.41;5039067;28;20238;-78
2022/04/11 07:37:26;;;;;;;8.83;4.83;;;;;;;14.77;38.49;101603.69;5038895;28;20489;-77
2022/04/11 07:39:52;;;;;;;5.97;5.30;;;;;;;16.87;35.89;101597.94;5037471;28;20459;-77
2022/04/11 07:42:17;;;;;;;8.13;5.37;;;;;;;15.79;36.84;101588.34;5018862;28;20418;-78
2022/04/11 07:44:43;;;;;;;6.40;5.80;;;;;;;16.11;36.83;101592.78;5019307;28;20421;-78
2022/04/11 07:47:08;;;;;;;5.53;4.73;;;;;;;16.90;35.04;101587.47;5018878;28;20224;-80
2022/04/11 07:49:34;;;;;;;8.00;5.60;;;;;;;16.28;36.35;101590.16;5019482;28;20206;-78
2022/04/11 07:51:59;;;;;;;6.47;5.10;;;;;;;16.86;35.29;101590.06;5019168;28;20182;-78
2022/04/11 07:54:24;;;;;;;7.10;4.93;;;;;;;16.96;35.71;101597.97;5019165;28;20214;-78
2022/04/11 07:56:50;;;;;;;7.47;4.90;;;;;;;16.04;36.77;101598.91;5019575;28;20591;-77
2022/04/11 07:59:16;;;;;;;10.70;5.70;;;;;;;18.31;33.87;101599.84;5018952;28;20590;-76
2022/04/11 08:01:41;;;;;;;9.07;4.77;;;;;;;17.87;34.59;101590.47;5018371;28;20178;-75
2022/04/11 08:04:06;;;;;;;10.30;5.00;;;;;;;18.43;33.12;101586.53;5018413;28;20230;-74
2022/04/11 08:06:32;;;;;;;10.67;5.53;;;;;;;18.30;33.71;101588.41;5019129;28;20237;-74
2022/04/11 08:08:57;;;;;;;7.53;5.37;;;;;;;18.95;32.99;101589.53;5018391;28;20225;-74
2022/04/11 08:11:23;;;;;;;9.33;5.07;;;;;;;17.39;34.80;101591.66;5018330;28;20167;-75
2022/04/11 08:13:48;;;;;;;7.50;4.80;;;;;;;17.71;34.34;101593.25;5018257;28;20167;-75
2022/04/11 08:16:13;;;;;;;8.07;5.30;;;;;;;18.00;35.14;101592.19;5018913;28;20174;-78
2022/04/11 08:18:39;;;;;;;7.57;5.23;;;;;;;17.22;34.54;101583.81;5034236;28;20228;-78
2022/04/11 08:21:04;;;;;;;6.37;4.50;;;;;;;17.72;34.31;101583.56;5018896;28;20167;-79
2022/04/11 08:23:30;;;;;;;8.10;5.10;;;;;;;18.02;33.81;101590.38;5018870;28;20175;-79
2022/04/11 08:25:56;;;;;;;7.33;4.97;;;;;;;17.72;33.53;101589.69;5018451;28;20183;-78
2022/04/11 08:28:22;;;;;;;5.67;4.50;;;;;;;18.35;33.07;101593.66;5019320;28;20218;-80
2022/04/11 08:30:48;;;;;;;5.80;4.33;;;;;;;17.29;33.93;101592.56;5018807;28;20171;-79
2022/04/11 08:33:14;;;;;;;5.13;4.43;;;;;;;18.77;32.81;101586.19;5018103;28;20433;-74
2022/04/11 08:35:40;;;;;;;6.97;4.73;;;;;;;18.90;32.17;101583.44;5018693;28;20414;-75
2022/04/11 08:38:05;;;;;;;5.20;4.70;;;;;;;17.83;34.52;101585.25;5018151;28;20472;-75
2022/04/11 08:40:31;;;;;;;5.50;4.30;;;;;;;17.65;34.05;101591.50;5018378;28;20214;-77
2022/04/11 08:42:56;;;;;;;6.00;4.63;;;;;;;17.51;34.35;101590.72;5018715;28;20545;-77
2022/04/11 08:45:23;;;;;;;7.30;4.63;;;;;;;19.45;31.73;101573.94;5018158;28;20178;-77
2022/04/11 08:47:50;;;;;;;7.50;4.90;;;;;;;18.02;33.40;101587.75;5018050;28;20203;-77
2022/04/11 08:50:15;;;;;;;7.20;4.73;;;;;;;18.73;31.46;101576.53;5018547;28;20414;-75
2022/04/11 08:52:41;;;;;;;7.00;4.40;;;;;;;19.37;31.06;101581.97;5017939;28;20824;-75
2022/04/11 08:55:07;;;;;;;6.73;4.70;;;;;;;19.82;30.36;101579.59;5019195;28;20273;-75
2022/04/11 08:57:35;;;;;;;5.77;4.33;;;;;;;18.63;32.50;101574.88;5018733;28;20175;-79
2022/04/11 09:00:07;;;;;;;6.20;4.00;;;;;;;17.16;33.88;101584.72;5018586;28;20469;-78
2022/04/11 09:02:34;;;;;;;5.50;4.10;;;;;;;18.00;31.36;101587.78;5018358;28;20738;-75
2022/04/11 09:04:59;;;;;;;6.73;4.43;;;;;;;18.64;32.51;101576.63;5017728;28;20432;-76
2022/04/11 09:07:25;;;;;;;6.13;4.40;;;;;;;17.89;33.12;101591.34;5018108;28;20429;-78
2022/04/11 09:09:50;;;;;;;5.10;4.00;;;;;;;17.39;32.74;101586.38;5018385;28;20171;-78
2022/04/11 09:12:17;;;;;;;5.00;4.27;;;;;;;18.32;30.78;101583.09;5018153;28;20175;-79
2022/04/11 09:14:43;;;;;;;4.87;4.37;;;;;;;18.51;30.33;101582.06;5017981;28;20495;-77
2022/04/11 09:17:09;;;;;;;4.23;3.93;;;;;;;18.28;31.02;101591.94;5018707;28;20907;-78
2022/04/11 09:19:35;;;;;;;5.37;4.00;;;;;;;18.20;31.03;101580.56;5016909;28;20548;-73
2022/04/11 09:22:00;;;;;;;6.13;3.97;;;;;;;16.98;32.78;101590.03;5017658;28;20501;-74
2022/04/11 09:24:26;;;;;;;6.53;4.30;;;;;;;17.90;32.82;101585.19;5018515;28;20178;-75
2022/04/11 09:26:54;;;;;;;6.43;4.20;;;;;;;17.21;32.88;101576.81;5021361;28;20189;-74
2022/04/11 09:29:20;;;;;;;6.00;3.80;;;;;;;18.87;30.44;101571.09;5021369;28;20174;-78
2022/04/11 09:31:46;;;;;;;4.80;4.00;;;;;;;18.75;29.61;101572.09;5028844;28;20416;-78
2022/04/11 09:34:15;;;;;;;5.53;3.73;;;;;;;19.26;29.46;101566.25;5043093;28;20266;-80
2022/04/11 09:36:49;;;;;;;6.90;4.47;;;;;;;20.13;27.91;101549.97;5025427;28;20201;-79
2022/04/11 09:39:15;;;;;;;6.47;3.57;;;;;;;20.87;26.42;101561.00;5021227;28;20469;-77
2022/04/11 09:41:45;;;;;;;6.63;4.00;;;;;;;21.32;25.27;101565.34;5020911;28;20426;-77
2022/04/11 09:44:25;;;;;;;8.23;3.97;;;;;;;20.68;25.60;101565.75;5021664;28;20410;-78
2022/04/11 09:46:52;;;;;;;4.40;3.93;;;;;;;20.72;26.17;101566.59;5021385;28;20513;-78
2022/04/11 09:49:18;;;;;;;5.97;3.87;;;;;;;19.63;27.61;101565.75;5021193;28;20475;-78
2022/04/11 09:52:09;;;;;;;4.93;3.40;;;;;;;20.25;25.45;101564.75;5020678;28;20437;-76
2022/04/11 09:54:38;;;;;;;3.70;3.37;;;;;;;20.08;25.47;101575.66;5021926;28;20791;-75
2022/04/11 09:57:05;;;;;;;5.90;3.50;;;;;;;19.24;27.08;101588.31;5019985;28;20418;-75
2022/04/11 09:59:31;;;;;;;4.20;3.80;;;;;;;19.77;26.78;101568.16;5020669;28;20515;-74
2022/04/11 10:01:57;;;;;;;4.57;3.37;;;;;;;19.18;26.31;101563.69;5021388;28;20501;-75
2022/04/11 10:04:22;;;;;;;5.27;3.80;;;;;;;18.37;27.09;101564.59;5020525;28;20867;-75
2022/04/11 10:06:49;;;;;;;5.33;4.80;;;;;;;19.88;27.97;101564.50;5020732;28;20171;-78
2022/04/11 10:09:15;;;;;;;5.87;3.77;;;;;;;19.17;27.62;101566.34;5021034;28;20171;-74
2022/04/11 10:11:44;;;;;;;4.57;3.53;;;;;;;19.49;27.32;101558.00;5019543;28;20417;-73
2022/04/11 10:14:23;;;;;;;4.10;3.50;;;;;;;19.93;26.57;101562.66;5020360;28;20696;-75
2022/04/11 10:16:49;;;;;;;3.70;3.40;;;;;;;20.10;25.57;101547.38;5000766;28;20450;-75
2022/04/11 10:19:15;;;;;;;4.63;3.67;;;;;;;20.49;25.64;101546.69;5000549;28;20458;-75
2022/04/11 10:21:42;;;;;;;3.83;3.07;;;;;;;18.46;27.43;101559.22;5001336;28;20414;-79
2022/04/11 10:24:17;;;;;;;4.97;3.57;;;;;;;19.65;26.56;101552.50;5000001;28;20176;-79
2022/04/11 10:26:53;;;;;;;6.60;3.67;;;;;;;20.17;25.19;101546.38;5000362;28;20425;-76
2022/04/11 10:29:37;;;;;;;7.30;3.50;;;;;;;20.40;25.32;101553.00;5016479;28;20422;-81
2022/04/11 10:32:08;;;;;;;5.40;4.47;;;;;;;18.78;26.68;101552.72;5019575;28;20468;-79
2022/04/11 10:34:44;;;;;;;6.13;3.80;;;;;;;20.68;24.70;101548.09;5039606;28;20410;-79
2022/04/11 10:37:10;;;;;;;8.20;4.00;;;;;;;20.60;25.26;101549.13;5039810;28;20412;-80
2022/04/11 10:39:37;;;;;;;5.20;3.60;;;;;;;20.77;24.35;101539.13;5039133;28;20469;-75
2022/04/11 10:42:05;;;;;;;4.63;3.30;;;;;;;17.99;27.04;101551.72;5039591;28;20807;-78
2022/04/11 10:44:35;;;;;;;3.80;3.50;;;;;;;18.05;26.51;101552.56;5040419;28;20401;-79
2022/04/11 10:47:12;;;;;;;3.50;3.20;;;;;;;19.49;25.13;101542.13;5022859;28;20425;-80
2022/04/11 10:49:53;;;;;;;3.43;3.10;;;;;;;19.89;24.61;101545.97;5040053;28;20470;-78
2022/04/11 10:52:31;;;;;;;3.30;3.00;;;;;;;19.27;24.52;101557.44;5039775;28;20425;-80
2022/04/11 10:55:19;;;;;;;4.30;3.10;;;;;;;19.87;24.99;101534.53;5039967;28;20504;-79
2022/04/11 10:57:57;;;;;;;3.70;3.23;;;;;;;18.18;25.26;101551.56;5039846;28;20817;-80
2022/04/11 11:00:27;;;;;;;3.83;3.50;;;;;;;18.72;26.63;101551.00;5039004;28;20748;-82
2022/04/11 11:03:01;;;;;;;5.60;3.50;;;;;;;19.16;26.42;101548.78;5039601;28;20862;-78
2022/04/11 11:05:28;;;;;;;4.33;3.83;;;;;;;18.59;26.62;101544.13;5040043;28;20445;-79
2022/04/11 11:08:11;;;;;;;4.77;3.67;;;;;;;17.55;27.20;101538.81;5039762;28;20443;-80
2022/04/11 11:10:40;;;;;;;4.30;3.60;;;;;;;17.67;26.49;101541.38;5039581;28;20470;-77
2022/04/11 11:13:34;;;;;;;4.00;3.60;;;;;;;18.51;25.64;101538.94;5039595;28;20754;-77
2022/04/11 11:16:01;;;;;;;4.10;3.60;;;;;;;18.04;26.78;101541.13;5024721;28;20417;-78
2022/04/11 11:18:27;;;;;;;6.13;4.10;;;;;;;17.80;28.24;101540.41;5019161;28;20874;-79
2022/04/11 11:20:55;;;;;;;5.60;4.03;;;;;;;18.42;28.03;101529.34;5018831;28;20469;-77
2022/04/11 11:23:31;;;;;;;4.20;3.80;;;;;;;16.49;32.35;101535.72;5019983;28;20724;-78
2022/04/11 11:26:07;;;;;;;6.13;4.10;;;;;;;16.05;32.24;101529.66;5019329;28;20409;-78